Currently 87°F in Hemet, California, USA
87°F
87°F / 64°F
calm
0.00"
Sunday, July 21, 2019 11:02 AM PDT

Hemet, California Weather Summary
Last 36 Hours

Temperature Winds Hourly Humidity Dewpoint
Time Report Norm Report Norm Max Gusts Precip. Rpt. Norm Rpt. Norm Pressure
1Sun 11:02 AM  87.3°F  85°F  calm  1 mph  6 mph  0.00"  28%  37%  49°F  55°F  29.93"
2Sun 11:01 AM  87.3°F  85°F  calm  1 mph  6 mph  ----  28%  37%  49°F  55°F  29.93"
Sun 11:00 AM  87.1°F  85°F  1 mph W  1 mph  6 mph  0.00"  27%  37%  48°F  55°F  29.93"
Sun 10:00 AM  81.0°F  81°F  calm  1 mph  none  0.00"  36%  43%  51°F  56°F  29.93"
Sun 09:00 AM  74.8°F  76°F  calm  calm  none  0.00"  45%  51%  51°F  56°F  29.94"
Sun 08:00 AM  68.2°F  72°F  calm  calm  none  0.00"  55%  57%  51°F  56°F  29.93"
Sun 07:00 AM  64.8°F  69°F  calm  calm  none  0.00"  51%  59%  46°F  54°F  29.92"
Sun 06:00 AM  66.0°F  68°F  calm  calm  none  0.00"  46%  59%  44°F  53°F  29.92"
Sun 05:00 AM  65.5°F  68°F  calm  calm  none  0.00"  48%  59%  45°F  53°F  29.90"
3Sun 04:16 AM  63.9°F  69°F  calm  calm  none  ----  54%  59%  46°F  53°F  29.90"
Sun 04:00 AM  64.8°F  69°F  calm  calm  none  0.00"  54%  59%  47°F  53°F  29.90"
Sun 03:00 AM  65.5°F  69°F  calm  calm  none  0.00"  53%  58%  47°F  53°F  29.92"
Sun 02:00 AM  66.0°F  70°F  calm  calm  none  0.00"  51%  57%  47°F  54°F  29.92"
Sun 01:00 AM  67.1°F  71°F  calm  calm  none  0.00"  50%  56%  47°F  54°F  29.93"
Sun 12:00 AM  67.6°F  72°F  calm  calm  none  0.00"  49%  54%  47°F  54°F  29.94"
Sat 11:00 PM  69.4°F  74°F  calm  calm  none  0.00"  46%  51%  47°F  54°F  29.93"
Sat 10:00 PM  72.1°F  76°F  calm  calm  none  0.00"  36%  47%  43°F  54°F  29.92"
Sat 09:00 PM  75.4°F  79°F  calm  calm  5 mph  0.00"  37%  43%  46°F  54°F  29.91"
Sat 08:00 PM  78.6°F  82°F  calm  1 mph  6 mph  0.00"  37%  38%  49°F  54°F  29.89"
Sat 07:00 PM  84.9°F  87°F  3 mph W  2 mph  12 mph  0.00"  30%  33%  49°F  54°F  29.88"
Sat 06:00 PM  89.4°F  91°F  5 mph SW  4 mph  12 mph  0.00"  26%  29%  49°F  54°F  29.87"
Sat 05:00 PM  93.4°F  93°F  2 mph W  4 mph  12 mph  0.00"  19%  27%  44°F  53°F  29.87"
Sat 04:00 PM  92.5°F  94°F  4 mph SW  4 mph  9 mph  0.00"  16%  25%  38°F  52°F  29.88"
Sat 03:00 PM  91.4°F  94°F  2 mph W  3 mph  12 mph  0.00"  17%  25%  39°F  52°F  29.91"
Sat 02:00 PM  89.1°F  93°F  4 mph NW  3 mph  9 mph  0.00"  20%  25%  41°F  52°F  29.92"
Sat 01:00 PM  85.6°F  92°F  3 mph SW  2 mph  8 mph  0.00"  23%  28%  42°F  52°F  29.93"
Sat 12:00 PM  82.0°F  89°F  calm  2 mph  8 mph  0.00"  29%  31%  46°F  53°F  29.95"
Sat 11:00 AM  77.7°F  85°F  calm  1 mph  9 mph  0.00"  37%  36%  48°F  55°F  29.95"
Sat 10:00 AM  72.0°F  81°F  calm  1 mph  5 mph  0.00"  45%  43%  49°F  55°F  29.96"
Sat 09:00 AM  66.7°F  76°F  calm  calm  none  0.00"  52%  50%  48°F  56°F  29.96"
Sat 08:00 AM  59.5°F  72°F  calm  calm  none  0.00"  60%  56%  45°F  55°F  29.96"
Sat 07:00 AM  56.8°F  69°F  calm  calm  none  0.00"  59%  59%  42°F  54°F  29.95"
Sat 06:00 AM  56.5°F  68°F  calm  calm  none  0.00"  60%  59%  42°F  52°F  29.94"
Sat 05:00 AM  57.4°F  68°F  calm  calm  none  0.00"  66%  59%  46°F  53°F  29.94"
Sat 04:00 AM  59.4°F  69°F  calm  calm  none  0.00"  54%  58%  42°F  53°F  29.93"
Sat 03:00 AM  59.5°F  69°F  calm  calm  none  0.00"  60%  58%  45°F  53°F  29.94"
Sat 02:00 AM  60.6°F  70°F  calm  calm  none  0.00"  58%  57%  45°F  53°F  29.95"
Sat 01:00 AM  62.1°F  71°F  calm  calm  none  0.00"  54%  56%  45°F  54°F  29.94"
Sat 12:00 AM  64.0°F  72°F  calm  calm  none  0.00"  51%  53%  45°F  54°F  29.94"

  1. Current weather data. No green row appears if the current weather data is also the high or low for the current day.
  2. High temperature for the current day.
  3. Low temperature for the current day.

The Hemet weather pages are a service of WeatherCurrents. Hemet, California is located in the San Jacinto Valley, in western Riverside County, at the foot of the San Jacinto mountains.
Copyright ©2019  WeatherCurrents. All rights reserved. - Submit questions and comments - Privacy Policy

This page automatically refreshes every 10 minutes.